Time;durP1;ratioP1;P1;durP2;ratioP2;P2;SDS_P1;SDS_P2;PMS_P1;PMS_P2;Temp;Humidity;BMP_temperature;BMP_pressure;BME280_temperature;BME280_humidity;BME280_pressure;Samples;Min_cycle;Max_cycle;Signal;HPM_P1;HPM_P2
2023/07/06 00:04:52;;;;;;;2.13;1.10;;;;;;;15.45;53.05;99978.00;10382721;28;20191;-58
2023/07/06 00:09:54;;;;;;;2.08;1.10;;;;;;;15.40;52.94;99978.38;10381468;28;20050;-58
2023/07/06 00:14:56;;;;;;;1.13;1.00;;;;;;;15.27;53.40;99982.91;10381257;28;20529;-56
2023/07/06 00:19:58;;;;;;;1.63;1.40;;;;;;;14.87;53.86;100003.59;10381378;28;20151;-57
2023/07/06 00:25:00;;;;;;;1.75;1.05;;;;;;;14.42;54.68;99999.13;10382263;28;20980;-58
2023/07/06 00:30:15;;;;;;;1.88;1.10;;;;;;;14.48;54.81;100010.03;10382293;28;20050;-58
2023/07/06 00:35:17;;;;;;;1.83;1.05;;;;;;;14.53;54.66;99999.22;10388845;28;20053;-58
2023/07/06 00:40:19;;;;;;;2.63;1.60;;;;;;;14.49;55.01;100003.84;10387335;28;20041;-58
2023/07/06 00:45:22;;;;;;;1.83;1.20;;;;;;;14.34;55.34;100002.31;10391266;28;20049;-58
2023/07/06 00:50:28;;;;;;;2.35;1.50;;;;;;;13.97;55.94;100000.72;10387659;28;20103;-57
2023/07/06 00:55:36;;;;;;;1.88;1.17;;;;;;;13.95;56.54;99999.13;10389082;28;20050;-57
2023/07/06 01:00:40;;;;;;;4.15;1.17;;;;;;;13.97;56.19;100005.13;10388964;28;20061;-57
2023/07/06 01:05:43;;;;;;;3.67;1.23;;;;;;;13.99;56.30;100000.59;10388992;28;20519;-57
2023/07/06 01:10:47;;;;;;;2.47;1.30;;;;;;;13.96;56.44;100001.69;10388278;28;20046;-58
2023/07/06 01:16:04;;;;;;;2.08;1.20;;;;;;;13.85;57.48;99998.13;10387091;28;20133;-58
2023/07/06 01:21:39;;;;;;;1.42;1.10;;;;;;;13.74;58.19;100009.41;10385134;28;20033;-57
2023/07/06 01:27:03;;;;;;;1.55;1.13;;;;;;;13.65;57.97;100005.66;10385459;28;20041;-57
2023/07/06 01:32:18;;;;;;;3.35;1.27;;;;;;;13.63;58.11;99999.69;10385927;28;20057;-57
2023/07/06 01:37:29;;;;;;;2.15;1.30;;;;;;;13.56;57.65;100000.19;10384197;28;20121;-57
2023/07/06 01:42:32;;;;;;;1.42;1.10;;;;;;;13.43;57.68;100004.66;10383732;28;20064;-58
2023/07/06 01:47:42;;;;;;;1.67;1.20;;;;;;;13.27;58.32;100006.66;10386344;28;20715;-57
2023/07/06 01:52:44;;;;;;;;;;;;;;;13.15;59.34;100008.31;10374921;28;20644;-56
2023/07/06 01:57:55;;;;;;;1.42;1.02;;;;;;;13.20;58.46;100013.25;10385347;28;19925;-57
2023/07/06 02:03:05;;;;;;;2.47;1.30;;;;;;;12.89;58.27;100010.09;10389867;28;20064;-55
2023/07/06 02:08:10;;;;;;;2.33;1.23;;;;;;;12.85;58.62;100003.38;10376211;28;20509;-58
2023/07/06 02:13:12;;;;;;;2.78;1.30;;;;;;;12.85;58.63;100011.25;10392252;28;20456;-58
2023/07/06 02:18:14;;;;;;;3.13;1.30;;;;;;;12.74;58.48;100005.88;10391798;28;20061;-58
2023/07/06 02:23:16;;;;;;;2.17;1.10;;;;;;;12.57;58.77;100003.56;10392572;28;20136;-58
2023/07/06 02:28:20;;;;;;;2.22;1.13;;;;;;;12.27;59.09;99999.47;10392957;28;20132;-58
2023/07/06 02:33:22;;;;;;;1.90;1.10;;;;;;;12.11;59.58;100005.69;10388604;28;20088;-57
2023/07/06 02:38:24;;;;;;;1.70;1.20;;;;;;;12.00;59.76;100013.44;10391527;28;20123;-57
2023/07/06 02:43:26;;;;;;;2.45;1.30;;;;;;;11.95;60.08;100015.50;10390939;28;20532;-58
2023/07/06 02:48:29;;;;;;;2.20;1.30;;;;;;;12.04;60.07;100014.06;10372885;28;20041;-58
2023/07/06 02:53:31;;;;;;;2.05;1.25;;;;;;;12.14;59.87;100015.16;10386404;28;20033;-57
2023/07/06 02:58:34;;;;;;;1.90;1.10;;;;;;;12.10;59.89;100018.91;10389169;28;20124;-57
2023/07/06 03:03:36;;;;;;;1.83;1.25;;;;;;;12.04;60.01;100014.91;10387697;28;20053;-57
2023/07/06 03:08:38;;;;;;;1.73;1.15;;;;;;;11.72;60.13;100015.28;10365171;28;20055;-57
2023/07/06 03:13:41;;;;;;;2.53;1.05;;;;;;;11.57;60.56;100030.19;10382316;28;20049;-57
2023/07/06 03:18:44;;;;;;;2.35;1.38;;;;;;;11.65;60.55;100027.06;10382353;28;20045;-57
2023/07/06 03:23:49;;;;;;;1.80;1.30;;;;;;;11.79;60.51;100024.44;10382777;28;20092;-58
2023/07/06 03:28:51;;;;;;;1.52;1.20;;;;;;;11.91;60.14;100018.41;10381353;28;20077;-57
2023/07/06 03:34:07;;;;;;;2.67;1.20;;;;;;;11.91;60.65;100026.25;10380294;28;20505;-57
2023/07/06 03:39:12;;;;;;;2.22;1.15;;;;;;;11.88;60.28;100031.72;10382125;28;20440;-56
2023/07/06 03:44:14;;;;;;;3.50;1.40;;;;;;;11.76;60.00;100030.72;10382139;28;20057;-57
2023/07/06 03:49:16;;;;;;;3.15;1.20;;;;;;;11.63;60.33;100040.28;10381700;28;20561;-57
2023/07/06 03:54:19;;;;;;;3.20;1.35;;;;;;;11.60;60.08;100040.44;10380390;28;20133;-58
2023/07/06 03:59:22;;;;;;;2.08;1.20;;;;;;;11.63;60.04;100028.94;10381984;28;20045;-57
2023/07/06 04:04:28;;;;;;;1.98;1.30;;;;;;;11.68;59.88;100042.63;10377874;28;20506;-58
2023/07/06 04:09:30;;;;;;;1.63;1.10;;;;;;;11.77;60.18;100047.25;10386832;28;20102;-57
2023/07/06 04:14:32;;;;;;;1.52;1.42;;;;;;;12.01;60.14;100040.47;10390923;28;20111;-57
2023/07/06 04:19:35;;;;;;;1.55;1.20;;;;;;;14.39;57.46;100044.09;10383892;28;20609;-57
2023/07/06 04:24:37;;;;;;;2.65;1.30;;;;;;;16.89;51.82;100042.59;10391007;28;20172;-57
2023/07/06 04:29:39;;;;;;;3.47;1.35;;;;;;;18.84;48.75;100041.13;10387470;28;20417;-57
2023/07/06 04:34:41;;;;;;;1.05;1.00;;;;;;;20.34;45.93;100034.69;10388105;28;20391;-58
2023/07/06 04:39:43;;;;;;;2.67;1.30;;;;;;;21.29;44.06;100048.91;10389104;28;20050;-58
2023/07/06 04:44:45;;;;;;;1.75;1.17;;;;;;;22.87;41.77;100036.47;10388917;28;20136;-58
2023/07/06 04:49:47;;;;;;;1.52;1.05;;;;;;;24.32;39.21;100034.19;10389126;28;20148;-58
2023/07/06 04:54:50;;;;;;;1.67;1.20;;;;;;;25.34;37.45;100031.03;10388327;28;20037;-59
2023/07/06 04:59:52;;;;;;;1.55;1.10;;;;;;;25.84;36.12;100042.63;10387942;28;20045;-59
2023/07/06 05:04:54;;;;;;;1.65;1.20;;;;;;;26.09;35.33;100048.53;10388486;28;20053;-59
2023/07/06 05:09:57;;;;;;;1.25;1.10;;;;;;;26.46;34.54;100042.13;10385783;28;20509;-58
2023/07/06 05:14:59;;;;;;;1.35;1.02;;;;;;;26.76;33.64;100049.06;10388092;28;20901;-59
2023/07/06 05:20:01;;;;;;;2.08;1.23;;;;;;;26.83;33.22;100043.75;10387642;28;20128;-59
2023/07/06 05:25:03;;;;;;;1.88;1.02;;;;;;;27.55;32.60;100045.13;10387950;28;20053;-58
2023/07/06 05:30:06;;;;;;;2.13;1.10;;;;;;;27.92;31.63;100041.22;10385920;28;20144;-59
2023/07/06 05:35:09;;;;;;;2.33;1.20;;;;;;;26.41;32.16;100048.06;10386695;28;20052;-58
2023/07/06 05:40:11;;;;;;;1.15;0.90;;;;;;;23.13;35.99;100061.09;10385446;28;20039;-58
2023/07/06 05:45:14;;;;;;;3.38;1.10;;;;;;;21.36;38.39;100068.59;10386634;28;20045;-59
2023/07/06 05:50:16;;;;;;;3.05;1.20;;;;;;;19.99;40.35;100073.44;10386258;28;20053;-58
2023/07/06 05:55:18;;;;;;;1.98;1.30;;;;;;;19.58;41.32;100079.22;10387635;28;20490;-58
2023/07/06 06:00:20;;;;;;;2.15;1.30;;;;;;;19.16;42.37;100084.06;10386027;28;20503;-58
2023/07/06 06:05:23;;;;;;;1.13;1.02;;;;;;;19.00;42.71;100091.72;10386904;28;20140;-58
2023/07/06 06:10:25;;;;;;;2.28;1.20;;;;;;;18.70;42.94;100101.63;10385341;28;20054;-57
2023/07/06 06:15:27;;;;;;;1.13;1.00;;;;;;;18.38;43.58;100107.19;10384039;28;20453;-58
2023/07/06 06:20:30;;;;;;;1.75;1.13;;;;;;;18.45;43.97;100117.09;10384432;28;20049;-57
2023/07/06 06:25:33;;;;;;;1.58;1.00;;;;;;;18.55;44.34;100119.75;10384307;28;20045;-58
2023/07/06 06:30:38;;;;;;;1.17;1.00;;;;;;;18.41;44.44;100114.84;10384072;28;20052;-58
2023/07/06 06:35:40;;;;;;;1.55;0.98;;;;;;;18.74;44.07;100122.44;10386054;28;20125;-58
2023/07/06 06:40:44;;;;;;;2.65;1.00;;;;;;;18.75;43.99;100121.44;10385924;28;20049;-57
2023/07/06 06:45:46;;;;;;;1.73;0.85;;;;;;;18.89;43.75;100126.31;10386259;28;20134;-59
2023/07/06 06:50:48;;;;;;;1.42;1.10;;;;;;;19.12;43.62;100134.84;10386032;28;20049;-59
2023/07/06 06:55:50;;;;;;;1.77;1.00;;;;;;;19.26;43.15;100114.03;10385829;28;20045;-60
2023/07/06 07:01:01;;;;;;;1.98;1.05;;;;;;;19.90;41.66;100124.78;10383029;28;20049;-59
2023/07/06 07:06:11;;;;;;;1.65;0.90;;;;;;;20.77;41.19;100122.47;10381107;28;20192;-59
2023/07/06 07:11:13;;;;;;;1.75;1.00;;;;;;;21.73;39.95;100119.72;10383508;28;20448;-59
2023/07/06 07:16:24;;;;;;;2.38;0.82;;;;;;;23.17;38.86;100115.81;10384692;28;20061;-58
2023/07/06 07:21:26;;;;;;;1.67;1.05;;;;;;;24.54;36.94;100113.59;10387435;28;20080;-59
2023/07/06 07:26:29;;;;;;;0.73;0.70;;;;;;;25.76;35.28;100108.88;10387442;28;20609;-58
2023/07/06 07:31:31;;;;;;;1.92;0.80;;;;;;;26.48;33.70;100104.47;10386948;28;20584;-59
2023/07/06 07:36:34;;;;;;;1.92;1.00;;;;;;;26.77;32.80;100106.25;10386876;28;20045;-59
2023/07/06 07:41:42;;;;;;;1.65;1.08;;;;;;;26.45;32.61;100104.84;10385751;28;20049;-59
2023/07/06 07:46:44;;;;;;;0.80;0.77;;;;;;;26.88;30.88;100090.47;10385684;28;20061;-59
2023/07/06 07:51:46;;;;;;;1.08;0.75;;;;;;;26.31;30.77;100093.13;10386439;28;20180;-58
2023/07/06 07:56:53;;;;;;;2.38;0.70;;;;;;;26.06;30.80;100099.81;10384948;28;20665;-59
2023/07/06 08:01:56;;;;;;;1.23;0.77;;;;;;;25.80;30.72;100102.97;10386241;28;20103;-59
2023/07/06 08:06:58;;;;;;;1.02;0.65;;;;;;;26.32;30.83;100094.78;10385665;28;20041;-59
2023/07/06 08:12:03;;;;;;;2.22;1.20;;;;;;;26.50;30.04;100105.09;10385292;28;20042;-58
2023/07/06 08:17:05;;;;;;;1.25;0.77;;;;;;;27.13;29.53;100104.31;10386026;28;20062;-59
2023/07/06 08:22:07;;;;;;;1.00;0.73;;;;;;;27.00;28.81;100091.59;10384880;28;20061;-59
2023/07/06 08:27:11;;;;;;;0.75;0.70;;;;;;;27.24;27.97;100093.88;10385786;28;20045;-59
2023/07/06 08:32:21;;;;;;;0.85;0.55;;;;;;;27.46;27.27;100090.13;10385883;28;20506;-59
2023/07/06 08:37:24;;;;;;;1.23;0.70;;;;;;;27.69;25.70;100097.09;10383906;28;20059;-59
2023/07/06 08:42:26;;;;;;;0.95;0.65;;;;;;;27.15;27.04;100105.81;10383399;28;20244;-58
2023/07/06 08:47:29;;;;;;;1.10;0.70;;;;;;;27.41;26.42;100099.81;10380703;28;20144;-59
2023/07/06 08:52:34;;;;;;;0.63;0.60;;;;;;;26.66;26.54;100094.16;10385940;28;20061;-59
2023/07/06 08:57:36;;;;;;;0.68;0.40;;;;;;;26.74;25.55;100093.19;10392167;28;20053;-59
2023/07/06 09:02:39;;;;;;;0.50;0.50;;;;;;;27.01;25.23;100090.59;10392305;28;20056;-59
2023/07/06 09:07:45;;;;;;;1.33;0.40;;;;;;;27.47;24.50;100086.41;10392049;28;20049;-59
2023/07/06 09:12:48;;;;;;;1.17;0.70;;;;;;;27.89;23.88;100092.69;10390594;28;20056;-59
2023/07/06 09:17:50;;;;;;;1.13;0.50;;;;;;;26.90;24.81;100101.00;10372860;28;20058;-59
2023/07/06 09:22:53;;;;;;;0.88;0.50;;;;;;;27.81;24.23;100090.19;10391227;28;20160;-59
2023/07/06 09:27:58;;;;;;;0.32;0.32;;;;;;;27.02;23.92;100089.53;10391016;28;20051;-59
2023/07/06 09:33:04;;;;;;;0.70;0.60;;;;;;;26.26;24.12;100092.03;10390820;28;20046;-59
2023/07/06 09:38:06;;;;;;;0.65;0.60;;;;;;;26.86;24.24;100087.13;10389333;28;20466;-59
2023/07/06 09:43:27;;;;;;;1.00;0.40;;;;;;;27.34;21.89;100088.19;10389698;28;20413;-59
2023/07/06 09:48:37;;;;;;;1.42;0.40;;;;;;;26.86;23.38;100089.81;10389699;28;20060;-59
2023/07/06 09:53:51;;;;;;;0.35;0.35;;;;;;;27.63;21.88;100085.25;10388939;28;20140;-59
2023/07/06 09:58:54;;;;;;;0.55;0.40;;;;;;;28.25;23.06;100082.50;10388819;28;20190;-59
2023/07/06 10:04:29;;;;;;;1.02;0.45;;;;;;;28.12;20.79;100083.28;10387477;28;20057;-59
2023/07/06 10:09:37;;;;;;;0.80;0.50;;;;;;;28.09;22.04;100078.31;10389297;28;20406;-59
2023/07/06 10:14:49;;;;;;;0.57;0.45;;;;;;;27.81;21.73;100085.59;10390357;28;20045;-59
2023/07/06 10:20:13;;;;;;;0.50;0.50;;;;;;;27.65;21.35;100079.72;10389424;28;20064;-59
2023/07/06 10:25:33;;;;;;;0.20;0.20;;;;;;;27.08;22.59;100077.19;10388364;28;20062;-58
2023/07/06 10:30:44;;;;;;;0.57;0.47;;;;;;;25.44;23.98;100077.09;10387694;28;20417;-59
2023/07/06 10:35:50;;;;;;;0.55;0.40;;;;;;;26.14;23.65;100077.47;10387517;28;20452;-59
2023/07/06 10:41:09;;;;;;;0.30;0.30;;;;;;;27.14;21.89;100073.72;10388467;28;20051;-58
2023/07/06 10:46:32;;;;;;;0.40;0.40;;;;;;;27.19;22.33;100074.03;10388689;28;20085;-59
2023/07/06 10:51:52;;;;;;;0.47;0.40;;;;;;;26.96;22.35;100082.25;10387589;28;20076;-59
2023/07/06 10:57:05;;;;;;;1.08;0.52;;;;;;;26.02;23.68;100084.34;10383837;28;20060;-59
2023/07/06 11:02:24;;;;;;;0.40;0.40;;;;;;;24.88;24.43;100087.28;10384222;28;20167;-59
2023/07/06 11:07:44;;;;;;;;;;;;;;;24.68;24.74;100083.41;10387216;28;20143;-57
2023/07/06 11:12:57;;;;;;;0.95;0.52;;;;;;;24.82;24.62;100089.84;10384052;28;19982;-58
2023/07/06 11:18:19;;;;;;;0.57;0.52;;;;;;;24.97;24.04;100077.34;10371629;28;20065;-59
2023/07/06 11:23:45;;;;;;;0.45;0.45;;;;;;;24.62;23.98;100081.44;10381359;28;20053;-58
2023/07/06 11:28:48;;;;;;;1.20;0.47;;;;;;;25.50;24.31;100079.88;10378986;28;20103;-59
2023/07/06 11:34:03;;;;;;;0.40;0.32;;;;;;;26.00;22.44;100070.28;10376646;28;20054;-59
2023/07/06 11:39:22;;;;;;;0.85;0.45;;;;;;;26.44;22.27;100062.97;10384091;28;20054;-60
2023/07/06 11:44:26;;;;;;;;;;;;;;;26.06;22.03;100074.91;10376363;28;20080;-59
2023/07/06 11:49:40;;;;;;;0.70;0.50;;;;;;;26.36;22.42;100063.91;10380507;28;19985;-59
2023/07/06 11:54:51;;;;;;;0.43;0.40;;;;;;;26.16;22.65;100064.72;10380593;28;20128;-59
2023/07/06 12:05:32;;;;;;;0.40;0.40;;;;;;;25.66;22.53;100060.09;10374522;28;21176;-59
2023/07/06 12:10:36;;;;;;;0.55;0.40;;;;;;;25.47;23.87;100060.66;10376358;28;20523;-59
2023/07/06 12:15:38;;;;;;;0.52;0.50;;;;;;;25.47;23.59;100053.44;10383979;28;20069;-59
2023/07/06 12:20:40;;;;;;;0.65;0.50;;;;;;;25.89;23.55;100050.94;10378266;28;20046;-59
2023/07/06 12:25:42;;;;;;;0.80;0.50;;;;;;;26.31;23.75;100050.22;10383052;28;20081;-59
2023/07/06 12:30:49;;;;;;;1.77;0.75;;;;;;;26.95;23.43;100034.16;10387477;28;20498;-59
2023/07/06 12:35:53;;;;;;;1.20;0.60;;;;;;;27.03;22.83;100036.69;10390169;28;20038;-59
2023/07/06 12:41:16;;;;;;;1.02;0.63;;;;;;;26.99;22.50;100033.56;10383456;28;20041;-60
2023/07/06 12:46:21;;;;;;;2.08;0.77;;;;;;;27.08;23.01;100031.56;10389607;28;20134;-59
2023/07/06 12:51:25;;;;;;;0.63;0.40;;;;;;;27.14;23.06;100039.69;10403489;28;20048;-59
2023/07/06 12:56:31;;;;;;;1.60;0.60;;;;;;;26.48;23.03;100034.72;10387533;28;20048;-59
2023/07/06 13:01:45;;;;;;;0.52;0.52;;;;;;;26.24;23.43;100037.78;10369954;28;20053;-58
2023/07/06 13:06:52;;;;;;;1.02;0.63;;;;;;;26.36;23.76;100033.56;10388527;28;20399;-59
2023/07/06 13:11:58;;;;;;;1.15;0.70;;;;;;;26.46;23.50;100032.25;10386288;28;20056;-59
2023/07/06 13:17:06;;;;;;;1.67;0.90;;;;;;;26.81;23.42;100016.28;10388138;28;20057;-58
2023/07/06 13:22:12;;;;;;;1.10;0.40;;;;;;;26.78;23.59;100019.34;10374948;28;20048;-59
2023/07/06 13:27:17;;;;;;;0.73;0.63;;;;;;;26.36;23.42;100025.53;10377548;28;20401;-59
2023/07/06 13:32:20;;;;;;;0.73;0.47;;;;;;;26.13;23.52;100022.19;10380904;28;20050;-59
2023/07/06 13:37:28;;;;;;;0.68;0.47;;;;;;;26.37;23.91;100019.13;10368174;28;20183;-59
2023/07/06 13:42:31;;;;;;;1.17;0.70;;;;;;;26.21;23.82;100017.53;10382788;28;20410;-60
2023/07/06 13:47:33;;;;;;;0.55;0.35;;;;;;;26.73;23.62;100008.38;10383510;28;20121;-59
2023/07/06 13:52:35;;;;;;;0.70;0.70;;;;;;;27.31;23.44;100008.00;10376824;28;20057;-59
2023/07/06 13:57:41;;;;;;;0.98;0.70;;;;;;;27.40;23.09;100004.94;10383796;28;20119;-59
2023/07/06 14:02:47;;;;;;;0.45;0.45;;;;;;;27.12;23.21;100004.13;10378615;28;20409;-59
2023/07/06 14:07:51;;;;;;;0.77;0.63;;;;;;;26.98;23.26;100002.38;10381739;28;20045;-59
2023/07/06 14:12:54;;;;;;;1.05;0.55;;;;;;;26.37;23.75;100005.72;10370863;28;20049;-59
2023/07/06 14:17:57;;;;;;;1.15;0.70;;;;;;;26.42;23.22;99997.94;10383850;28;20069;-59
2023/07/06 14:23:00;;;;;;;1.13;0.70;;;;;;;26.45;23.18;100001.06;10380248;28;20055;-59
2023/07/06 14:28:05;;;;;;;0.73;0.50;;;;;;;26.56;23.37;100008.66;10382034;28;20045;-60
2023/07/06 14:33:07;;;;;;;0.60;0.60;;;;;;;26.26;22.95;100011.59;10381080;28;21031;-59
2023/07/06 14:38:10;;;;;;;0.98;0.75;;;;;;;26.63;23.34;99997.94;10382052;28;20041;-59
2023/07/06 14:43:12;;;;;;;3.38;1.00;;;;;;;26.50;23.25;100008.53;10378791;28;20135;-59
2023/07/06 14:48:14;;;;;;;1.40;0.82;;;;;;;26.32;23.44;100005.47;10378363;28;20163;-59
2023/07/06 14:53:17;;;;;;;0.73;0.57;;;;;;;25.84;23.71;100007.81;10380539;28;20242;-59
2023/07/06 14:58:19;;;;;;;0.93;0.68;;;;;;;25.64;24.03;100004.03;10383217;28;20128;-59
2023/07/06 15:03:21;;;;;;;1.10;0.77;;;;;;;25.44;24.46;100008.31;10380900;28;20540;-59
2023/07/06 15:08:24;;;;;;;1.02;0.63;;;;;;;25.67;24.25;100006.34;10382882;28;20045;-59
2023/07/06 15:13:26;;;;;;;1.63;0.80;;;;;;;25.64;24.42;100005.88;10381123;28;20420;-59
2023/07/06 15:18:28;;;;;;;0.52;0.50;;;;;;;25.60;23.86;100005.44;10383099;28;20411;-59
2023/07/06 15:23:30;;;;;;;2.05;0.70;;;;;;;25.97;23.62;99995.59;10373321;28;20131;-59
2023/07/06 15:28:32;;;;;;;0.70;0.60;;;;;;;26.15;23.32;99983.44;10378771;28;20037;-59
2023/07/06 15:33:35;;;;;;;1.98;0.80;;;;;;;26.12;23.81;99989.16;10377542;28;20060;-59
2023/07/06 15:38:38;;;;;;;3.00;1.00;;;;;;;26.24;23.52;99992.19;10383895;28;20115;-61
2023/07/06 15:43:42;;;;;;;1.25;0.77;;;;;;;26.33;23.56;99993.72;10371186;28;20132;-61
2023/07/06 15:48:44;;;;;;;1.52;0.88;;;;;;;26.43;22.98;99980.81;10362959;28;20173;-61
2023/07/06 15:53:46;;;;;;;1.45;0.93;;;;;;;26.42;23.64;99979.19;10378260;28;20045;-61
2023/07/06 15:59:00;;;;;;;2.88;0.70;;;;;;;26.21;23.26;99977.31;10382650;28;20060;-61
2023/07/06 16:04:02;;;;;;;1.33;0.80;;;;;;;25.89;23.57;99980.44;10376756;28;20498;-61
2023/07/06 16:09:05;;;;;;;3.30;0.98;;;;;;;25.50;23.68;99983.47;10377618;28;20616;-61
2023/07/06 16:14:07;;;;;;;7.32;1.00;;;;;;;25.61;24.18;99976.81;10379787;28;20053;-61
2023/07/06 16:19:18;;;;;;;1.05;0.80;;;;;;;25.67;23.64;99976.88;10377399;28;20058;-61
2023/07/06 16:24:20;;;;;;;1.08;0.70;;;;;;;25.63;23.60;99972.91;10379739;28;20455;-61
2023/07/06 16:29:22;;;;;;;1.13;0.75;;;;;;;25.95;23.69;99971.66;10377231;28;20379;-61
2023/07/06 16:34:24;;;;;;;1.08;0.80;;;;;;;25.50;23.50;99972.75;10379756;28;20148;-61
2023/07/06 16:39:26;;;;;;;1.52;0.88;;;;;;;25.72;23.69;99976.31;10379436;28;21153;-61
2023/07/06 16:44:28;;;;;;;0.93;0.70;;;;;;;25.85;23.81;99974.63;10379871;28;20052;-60
2023/07/06 16:49:30;;;;;;;2.63;0.70;;;;;;;26.10;23.91;99975.13;10378317;28;20045;-61
2023/07/06 16:54:32;;;;;;;1.40;0.80;;;;;;;26.43;23.91;99962.03;10379953;28;20054;-61
2023/07/06 16:59:34;;;;;;;0.90;0.73;;;;;;;26.61;23.90;99962.44;10376413;28;20945;-61
2023/07/06 17:04:36;;;;;;;1.55;0.90;;;;;;;26.20;24.04;99978.31;10380256;28;20041;-61
2023/07/06 17:09:38;;;;;;;1.42;0.88;;;;;;;25.92;24.37;99974.69;10378744;28;20037;-60
2023/07/06 17:14:40;;;;;;;1.20;0.75;;;;;;;26.03;24.29;99982.28;10382152;28;20506;-61
2023/07/06 17:19:42;;;;;;;3.20;1.00;;;;;;;26.09;24.72;99988.72;10385798;28;20140;-61
2023/07/06 17:24:44;;;;;;;0.60;0.60;;;;;;;25.79;24.53;99994.13;10382270;28;20037;-61
2023/07/06 17:29:47;;;;;;;0.88;0.68;;;;;;;25.60;24.71;99997.41;10383946;28;20057;-60
2023/07/06 17:34:49;;;;;;;4.78;1.05;;;;;;;25.57;24.59;99997.75;10386239;28;20573;-61
2023/07/06 17:39:51;;;;;;;1.00;0.80;;;;;;;25.22;24.51;100003.00;10385445;28;20042;-61
2023/07/06 17:44:53;;;;;;;1.15;0.73;;;;;;;24.89;24.65;100005.19;10385330;28;20052;-60
2023/07/06 17:49:55;;;;;;;1.58;0.80;;;;;;;24.57;24.90;100005.44;10386119;28;20045;-61
2023/07/06 17:54:57;;;;;;;0.73;0.70;;;;;;;24.45;25.12;100004.19;10385973;28;20107;-60
2023/07/06 17:59:59;;;;;;;0.95;0.85;;;;;;;24.26;25.38;100005.50;10385237;28;20141;-60
2023/07/06 18:05:01;;;;;;;2.83;0.98;;;;;;;24.13;25.21;100005.22;10384610;28;20251;-60
2023/07/06 18:10:04;;;;;;;0.73;0.52;;;;;;;24.10;25.44;100006.41;10382054;28;20057;-61
2023/07/06 18:15:06;;;;;;;2.30;0.77;;;;;;;24.08;25.62;100010.28;10386261;28;20071;-60
2023/07/06 18:20:09;;;;;;;0.68;0.68;;;;;;;23.85;26.22;100014.72;10382054;28;20056;-51
2023/07/06 18:25:12;;;;;;;1.10;0.80;;;;;;;23.81;26.23;100013.41;10381918;28;20271;-51
2023/07/06 18:30:15;;;;;;;1.88;0.88;;;;;;;23.63;26.41;100015.47;10380278;28;20045;-50
2023/07/06 18:35:17;;;;;;;1.38;0.65;;;;;;;23.50;26.58;100021.38;10385503;28;20108;-53
2023/07/06 18:40:19;;;;;;;0.80;0.55;;;;;;;23.33;26.96;100025.06;10379145;28;20613;-51
2023/07/06 18:45:21;;;;;;;2.63;0.85;;;;;;;23.30;27.47;100025.41;10380917;28;20136;-49
2023/07/06 18:50:42;;;;;;;1.52;0.77;;;;;;;23.13;27.88;100029.09;10381961;28;20050;-62
2023/07/06 18:55:45;;;;;;;1.30;0.82;;;;;;;23.03;28.72;100034.63;10382041;28;20045;-61
2023/07/06 19:00:47;;;;;;;0.98;0.68;;;;;;;22.86;29.16;100034.81;10370988;28;20041;-61
2023/07/06 19:05:49;;;;;;;0.90;0.77;;;;;;;22.66;29.52;100044.94;10381744;28;20049;-61
2023/07/06 19:10:51;;;;;;;1.60;0.80;;;;;;;22.39;30.06;100051.41;10378379;28;20057;-61
2023/07/06 19:15:53;;;;;;;0.98;0.70;;;;;;;22.12;30.62;100057.03;10381381;28;22112;-61
2023/07/06 19:20:56;;;;;;;1.77;0.90;;;;;;;21.74;31.23;100054.84;10361318;28;20045;-61
2023/07/06 19:25:59;;;;;;;1.33;1.00;;;;;;;21.52;31.73;100061.56;10381665;28;20041;-61
2023/07/06 19:31:02;;;;;;;1.08;0.77;;;;;;;21.41;32.27;100063.66;10377849;28;20050;-61
2023/07/06 19:36:05;;;;;;;1.83;0.90;;;;;;;21.20;33.24;100065.81;10379394;28;20065;-61
2023/07/06 19:41:08;;;;;;;1.17;0.70;;;;;;;21.00;33.72;100071.34;10379187;28;20088;-61
2023/07/06 19:46:11;;;;;;;1.35;0.80;;;;;;;20.55;34.67;100080.34;10375230;28;20138;-61
2023/07/06 19:51:23;;;;;;;2.78;1.00;;;;;;;20.44;34.98;100084.06;10385111;28;20618;-61
2023/07/06 19:56:28;;;;;;;1.20;0.80;;;;;;;20.29;35.38;100099.69;10383318;28;20889;-61
2023/07/06 20:01:30;;;;;;;1.45;0.90;;;;;;;20.05;36.19;100104.72;10383126;28;20514;-61
2023/07/06 20:06:32;;;;;;;1.33;0.90;;;;;;;19.86;36.75;100110.13;10351876;28;20136;-61
2023/07/06 20:11:34;;;;;;;2.15;0.80;;;;;;;19.65;37.12;100112.13;10383414;28;20045;-61
2023/07/06 20:16:36;;;;;;;1.17;0.88;;;;;;;19.48;37.51;100121.66;10396598;28;20146;-61
2023/07/06 20:21:38;;;;;;;0.93;0.77;;;;;;;19.39;37.88;100127.00;10383235;28;20063;-60
2023/07/06 20:26:41;;;;;;;1.85;0.85;;;;;;;19.15;38.17;100130.13;10381672;28;20791;-61
2023/07/06 20:31:43;;;;;;;1.15;0.90;;;;;;;18.89;39.25;100139.56;10368539;28;20038;-60
2023/07/06 20:36:45;;;;;;;2.30;0.93;;;;;;;18.66;39.50;100138.19;10378328;28;20137;-60
2023/07/06 20:41:47;;;;;;;1.55;0.80;;;;;;;18.55;39.65;100140.94;10379170;28;20633;-60
2023/07/06 20:46:50;;;;;;;2.08;1.13;;;;;;;18.46;40.12;100149.72;10380796;28;20254;-60
2023/07/06 20:51:53;;;;;;;1.40;0.90;;;;;;;18.07;40.83;100153.19;10384964;28;20045;-60
2023/07/06 20:56:55;;;;;;;1.77;0.90;;;;;;;17.33;41.55;100160.44;10386086;28;20092;-61
2023/07/06 21:01:58;;;;;;;2.10;1.00;;;;;;;17.46;42.02;100163.75;10384170;28;20592;-60
2023/07/06 21:07:02;;;;;;;2.28;0.90;;;;;;;17.50;42.15;100177.53;10383777;28;20049;-60
2023/07/06 21:12:05;;;;;;;2.05;1.13;;;;;;;17.44;41.99;100176.25;10400712;28;20516;-60
2023/07/06 21:17:09;;;;;;;7.72;2.47;;;;;;;17.41;42.54;100173.88;10388198;28;20055;-60
2023/07/06 21:22:11;;;;;;;1.23;0.90;;;;;;;17.39;42.51;100183.72;10399680;28;20059;-60
2023/07/06 21:27:14;;;;;;;1.33;0.90;;;;;;;17.21;43.10;100182.59;10386391;28;20053;-60
2023/07/06 21:32:16;;;;;;;1.65;0.85;;;;;;;17.21;43.13;100189.69;10386537;28;20195;-60
2023/07/06 21:37:18;;;;;;;1.73;1.02;;;;;;;17.04;43.34;100189.28;10385260;28;20115;-61
2023/07/06 21:42:20;;;;;;;1.50;1.08;;;;;;;16.77;44.09;100191.50;10385687;28;20128;-60
2023/07/06 21:47:22;;;;;;;2.47;1.00;;;;;;;16.61;44.28;100198.19;10372823;28;20505;-60
2023/07/06 21:52:24;;;;;;;2.88;1.20;;;;;;;16.55;44.31;100202.13;10387243;28;20059;-60
2023/07/06 21:57:26;;;;;;;1.85;1.08;;;;;;;16.47;44.78;100206.38;10387129;28;20267;-60
2023/07/06 22:02:28;;;;;;;1.33;0.88;;;;;;;16.43;44.86;100215.44;10385553;28;20038;-60
2023/07/06 22:07:30;;;;;;;1.33;0.93;;;;;;;16.29;45.48;100220.97;10386381;28;21233;-60
2023/07/06 22:12:32;;;;;;;2.17;1.20;;;;;;;16.10;45.62;100227.69;10382932;28;20037;-60
2023/07/06 22:17:34;;;;;;;1.98;1.15;;;;;;;15.92;45.84;100226.47;10384695;28;20055;-60
2023/07/06 22:22:36;;;;;;;1.55;1.00;;;;;;;15.90;45.64;100227.53;10386429;28;20052;-60
2023/07/06 22:27:39;;;;;;;1.52;1.00;;;;;;;15.77;46.02;100230.31;10387080;28;20057;-60
2023/07/06 22:32:41;;;;;;;1.52;1.00;;;;;;;15.69;46.48;100234.47;10386403;28;20060;-60
2023/07/06 22:37:43;;;;;;;1.63;1.15;;;;;;;15.62;46.28;100244.66;10386798;28;20571;-60
2023/07/06 22:42:45;;;;;;;1.42;1.10;;;;;;;15.50;46.71;100244.72;10384289;28;20041;-60
2023/07/06 22:47:48;;;;;;;3.20;1.15;;;;;;;15.39;47.19;100245.47;10386739;28;20212;-60
2023/07/06 22:53:00;;;;;;;1.25;1.00;;;;;;;15.24;47.17;100244.84;10386148;28;20783;-60
2023/07/06 22:58:04;;;;;;;1.15;1.00;;;;;;;15.26;47.46;100244.72;10381621;28;20061;-60
2023/07/06 23:03:06;;;;;;;2.28;1.10;;;;;;;15.24;47.43;100238.75;10384302;28;20587;-60
2023/07/06 23:08:10;;;;;;;2.03;1.10;;;;;;;15.16;47.66;100249.00;10384526;28;20061;-60
2023/07/06 23:13:12;;;;;;;1.83;1.10;;;;;;;14.96;48.08;100249.63;10384136;28;20115;-60
2023/07/06 23:18:15;;;;;;;2.35;1.05;;;;;;;14.93;48.12;100252.47;10385158;28;20061;-60
2023/07/06 23:23:17;;;;;;;2.58;1.10;;;;;;;14.94;48.26;100254.97;10384017;28;20053;-60
2023/07/06 23:28:21;;;;;;;2.70;1.10;;;;;;;14.85;48.29;100263.56;10384000;28;20161;-60
2023/07/06 23:33:24;;;;;;;2.17;1.20;;;;;;;14.69;48.72;100260.34;10385572;28;20095;-60